createdAt,value
2017-09-06T00:00:16.265Z,60.7
2017-09-06T00:01:17.665Z,60.9
2017-09-06T00:02:39.159Z,60.5
2017-09-06T00:03:40.545Z,60.3
2017-09-06T00:05:02.377Z,60.4
2017-09-06T00:06:03.771Z,60.5
2017-09-06T00:07:25.256Z,60.7
2017-09-06T00:08:26.649Z,61.0
2017-09-06T00:09:48.129Z,60.6
2017-09-06T00:10:49.526Z,60.5
2017-09-06T00:12:11.321Z,60.6
2017-09-06T00:13:12.714Z,60.6
2017-09-06T00:14:34.201Z,60.7
2017-09-06T00:15:35.593Z,60.8
2017-09-06T00:16:57.081Z,61.5
2017-09-06T00:17:58.473Z,60.8
2017-09-06T00:19:20.129Z,60.6
2017-09-06T00:20:21.529Z,60.8
2017-09-06T00:21:43.017Z,61.3
2017-09-06T00:22:44.409Z,61.2
2017-09-06T00:24:05.898Z,61.2
2017-09-06T00:25:07.289Z,61.6
2017-09-06T00:26:28.946Z,61.4
2017-09-06T00:27:30.338Z,61.1
2017-09-06T00:28:51.842Z,61.2
2017-09-06T00:29:53.221Z,61.5
2017-09-06T00:31:14.698Z,61.0
2017-09-06T00:32:16.097Z,61.4
2017-09-06T00:33:37.754Z,61.3
2017-09-06T00:34:39.146Z,61.2
2017-09-06T00:36:00.626Z,61.3
2017-09-06T00:37:02.017Z,61.2
2017-09-06T00:38:23.498Z,61.3
2017-09-06T00:39:24.890Z,61.2
2017-09-06T00:40:46.634Z,61.1
2017-09-06T00:41:48.027Z,61.2
2017-09-06T00:43:09.514Z,60.9
2017-09-06T00:44:10.906Z,61.3
2017-09-06T00:45:32.386Z,61.4
2017-09-06T00:46:33.778Z,61.4
2017-09-06T00:47:55.434Z,61.4
2017-09-06T00:48:56.826Z,61.4
2017-09-06T00:50:18.306Z,60.6
2017-09-06T00:51:19.697Z,61.4
2017-09-06T00:52:41.178Z,60.9
2017-09-06T00:53:42.570Z,61.4
2017-09-06T00:55:04.362Z,61.4
2017-09-06T00:56:05.778Z,61.4
2017-09-06T00:57:27.267Z,60.9
2017-09-06T00:58:28.658Z,60.5
2017-09-06T00:59:50.146Z,60.6
2017-09-06T01:00:51.539Z,60.5
2017-09-06T01:02:13.305Z,60.5
2017-09-06T01:03:14.690Z,60.6
2017-09-06T01:04:36.186Z,60.3
2017-09-06T01:05:37.578Z,60.4
2017-09-06T01:06:59.066Z,60.4
2017-09-06T01:08:00.458Z,60.3
2017-09-06T01:09:22.242Z,60.4
2017-09-06T01:10:23.635Z,60.5
2017-09-06T01:11:45.114Z,60.4
2017-09-06T01:12:46.516Z,60.6
2017-09-06T01:14:07.994Z,60.4
2017-09-06T01:15:09.395Z,60.5
2017-09-06T01:16:31.114Z,60.7
2017-09-06T01:17:32.514Z,60.6
2017-09-06T01:18:54.004Z,60.4
2017-09-06T01:19:55.395Z,60.7
2017-09-06T01:21:16.883Z,60.5
2017-09-06T01:22:18.275Z,60.5
2017-09-06T01:23:40.051Z,60.6
2017-09-06T01:24:41.459Z,60.6
2017-09-06T01:26:02.931Z,60.3
2017-09-06T01:27:04.331Z,60.6
2017-09-06T01:28:25.811Z,60.4
2017-09-06T01:29:27.203Z,60.5
2017-09-06T01:30:48.867Z,60.6
2017-09-06T01:31:50.259Z,60.4
2017-09-06T01:33:11.747Z,60.5
2017-09-06T01:34:13.139Z,60.5
2017-09-06T01:35:34.619Z,60.5
2017-09-06T01:36:36.011Z,60.6
2017-09-06T01:37:57.755Z,60.5
2017-09-06T01:38:59.153Z,60.5
2017-09-06T01:40:20.628Z,60.6
2017-09-06T01:41:22.019Z,60.4
2017-09-06T01:42:43.514Z,60.7
2017-09-06T01:43:44.899Z,60.5
2017-09-06T01:45:06.557Z,60.5
2017-09-06T01:46:07.947Z,60.5
2017-09-06T01:47:29.435Z,60.6
2017-09-06T01:48:30.827Z,60.5
2017-09-06T01:49:52.325Z,60.5
2017-09-06T01:50:53.723Z,60.5
2017-09-06T01:52:15.507Z,60.6
2017-09-06T01:53:16.900Z,60.5
2017-09-06T01:54:38.393Z,60.8
2017-09-06T01:55:39.788Z,60.3
2017-09-06T01:57:01.276Z,60.6
2017-09-06T01:58:02.667Z,60.3
2017-09-06T01:59:24.419Z,60.7
2017-09-06T02:00:25.812Z,60.3
2017-09-06T02:01:47.292Z,60.8
2017-09-06T02:02:48.683Z,60.7
2017-09-06T02:04:10.172Z,60.4
2017-09-06T02:05:11.596Z,60.4
2017-09-06T02:06:33.340Z,60.5
2017-09-06T02:07:34.740Z,60.7
2017-09-06T02:08:56.220Z,60.7
2017-09-06T02:09:57.612Z,61.1
2017-09-06T02:11:19.100Z,61.4
2017-09-06T02:12:20.503Z,61.3
2017-09-06T02:13:42.157Z,60.5
2017-09-06T02:14:43.556Z,60.8
2017-09-06T02:16:05.036Z,60.6
2017-09-06T02:17:06.428Z,60.4
2017-09-06T02:18:27.916Z,60.3
2017-09-06T02:19:29.308Z,60.7
2017-09-06T02:20:51.140Z,60.4
2017-09-06T02:21:52.532Z,60.5
2017-09-06T02:23:14.013Z,60.6
2017-09-06T02:24:15.404Z,60.4
2017-09-06T02:25:36.893Z,60.6
2017-09-06T02:26:38.284Z,60.8
2017-09-06T02:28:00.039Z,60.7
2017-09-06T02:29:01.430Z,60.5
2017-09-06T02:30:22.909Z,60.6
2017-09-06T02:31:24.301Z,60.6
2017-09-06T02:32:45.788Z,60.5
2017-09-06T02:33:47.181Z,60.5
2017-09-06T02:35:08.848Z,60.6
2017-09-06T02:36:10.246Z,60.8
2017-09-06T02:37:31.725Z,61.0
2017-09-06T02:38:33.122Z,60.5
2017-09-06T02:39:54.597Z,60.3
2017-09-06T02:40:55.989Z,60.5
2017-09-06T02:42:17.645Z,60.8
2017-09-06T02:43:19.037Z,60.8
2017-09-06T02:44:40.525Z,60.5
2017-09-06T02:45:41.917Z,60.6
2017-09-06T02:47:03.398Z,60.6
2017-09-06T02:48:04.789Z,60.7
2017-09-06T02:49:26.445Z,60.6
2017-09-06T02:50:27.837Z,60.7
2017-09-06T02:51:49.326Z,60.7
2017-09-06T02:52:50.717Z,60.7
2017-09-06T02:54:12.197Z,60.8
2017-09-06T02:55:13.589Z,60.6
2017-09-06T02:56:35.341Z,60.5
2017-09-06T02:57:36.733Z,60.6
2017-09-06T02:58:58.213Z,60.7
2017-09-06T02:59:59.605Z,60.9
2017-09-06T03:01:21.085Z,60.6
2017-09-06T03:02:22.477Z,60.6
2017-09-06T03:03:44.229Z,60.6
2017-09-06T03:04:45.674Z,60.7
2017-09-06T03:06:07.117Z,60.4
2017-09-06T03:07:08.510Z,60.4
2017-09-06T03:08:30.000Z,60.6
2017-09-06T03:09:31.390Z,60.6
2017-09-06T03:10:53.133Z,60.5
2017-09-06T03:11:54.534Z,60.4
2017-09-06T03:13:16.023Z,60.5
2017-09-06T03:14:17.413Z,60.5
2017-09-06T03:15:38.901Z,60.6
2017-09-06T03:16:40.293Z,60.4
2017-09-06T03:18:02.029Z,60.5
2017-09-06T03:19:03.422Z,60.5
2017-09-06T03:20:24.909Z,60.3
2017-09-06T03:21:26.306Z,60.0
2017-09-06T03:22:47.790Z,60.4
2017-09-06T03:23:49.181Z,60.2
2017-09-06T03:25:10.838Z,60.2
2017-09-06T03:26:12.230Z,60.2
2017-09-06T03:27:33.710Z,60.3
2017-09-06T03:28:35.101Z,60.0
2017-09-06T03:29:56.582Z,60.2
2017-09-06T03:30:57.974Z,60.1
2017-09-06T03:32:19.727Z,60.2
2017-09-06T03:33:21.150Z,59.9
2017-09-06T03:34:42.598Z,60.0
2017-09-06T03:35:43.982Z,60.2
2017-09-06T03:37:05.472Z,60.0
2017-09-06T03:38:06.862Z,59.9
2017-09-06T03:39:28.622Z,59.8
2017-09-06T03:40:30.014Z,60.2
2017-09-06T03:41:51.502Z,59.8
2017-09-06T03:42:52.894Z,59.8
2017-09-06T03:44:14.382Z,59.8
2017-09-06T03:45:15.774Z,60.1
2017-09-06T03:46:37.606Z,59.8
2017-09-06T03:47:38.998Z,60.1
2017-09-06T03:49:00.486Z,60.0
2017-09-06T03:50:01.878Z,59.9
2017-09-06T03:51:23.358Z,59.7
2017-09-06T03:52:24.742Z,60.0
2017-09-06T03:53:46.486Z,60.0
2017-09-06T03:54:47.878Z,59.7
2017-09-06T03:56:09.367Z,59.7
2017-09-06T03:57:10.758Z,59.9
2017-09-06T03:58:32.254Z,60.0
2017-09-06T03:59:33.630Z,59.9
2017-09-06T04:00:55.286Z,60.1
2017-09-06T04:01:56.678Z,60.1
2017-09-06T04:03:18.166Z,59.7
2017-09-06T04:04:19.558Z,59.7
2017-09-06T04:05:41.039Z,60.1
2017-09-06T04:06:42.431Z,59.7
2017-09-06T04:08:04.079Z,60.1
2017-09-06T04:09:05.471Z,60.0
2017-09-06T04:10:26.951Z,60.0
2017-09-06T04:11:28.349Z,59.9
2017-09-06T04:12:49.823Z,59.6
2017-09-06T04:13:51.214Z,59.6
2017-09-06T04:15:12.959Z,59.6
2017-09-06T04:16:14.351Z,59.9
2017-09-06T04:17:35.831Z,60.0
2017-09-06T04:18:37.226Z,59.9
2017-09-06T04:19:58.703Z,59.9
2017-09-06T04:21:00.095Z,59.8
2017-09-06T04:22:21.879Z,60.0
2017-09-06T04:23:23.271Z,60.1
2017-09-06T04:24:44.751Z,59.7
2017-09-06T04:25:46.151Z,59.6
2017-09-06T04:27:07.639Z,59.8
2017-09-06T04:28:09.031Z,59.7
2017-09-06T04:29:30.783Z,59.8
2017-09-06T04:30:32.175Z,60.0
2017-09-06T04:31:53.655Z,59.6
2017-09-06T04:32:55.048Z,59.6
2017-09-06T04:34:16.527Z,59.7
2017-09-06T04:35:17.928Z,59.8
2017-09-06T04:36:39.680Z,59.8
2017-09-06T04:37:41.072Z,60.1
2017-09-06T04:39:02.552Z,59.7
2017-09-06T04:40:03.944Z,60.0
2017-09-06T04:41:25.424Z,59.9
2017-09-06T04:42:26.815Z,59.7
2017-09-06T04:43:48.615Z,60.0
2017-09-06T04:44:50.008Z,59.9
2017-09-06T04:46:11.487Z,60.0
2017-09-06T04:47:12.879Z,60.0
2017-09-06T04:48:34.367Z,60.1
2017-09-06T04:49:35.759Z,59.9
2017-09-06T04:50:57.471Z,59.9
2017-09-06T04:51:58.863Z,60.2
2017-09-06T04:53:20.343Z,59.9
2017-09-06T04:54:21.735Z,59.7
2017-09-06T04:55:43.215Z,59.9
2017-09-06T04:56:44.608Z,59.7
2017-09-06T04:58:06.360Z,59.7
2017-09-06T04:59:07.752Z,60.1
2017-09-06T05:00:29.232Z,59.9
2017-09-06T05:01:30.624Z,59.7
2017-09-06T05:02:52.104Z,59.6
2017-09-06T05:03:53.495Z,59.8
2017-09-06T05:05:15.152Z,60.1
2017-09-06T05:06:16.544Z,59.9
2017-09-06T05:07:38.032Z,59.6
2017-09-06T05:08:39.428Z,59.9
2017-09-06T05:10:00.904Z,59.7
2017-09-06T05:11:02.296Z,59.8
2017-09-06T05:12:24.112Z,59.8
2017-09-06T05:13:25.512Z,59.9
2017-09-06T05:14:46.992Z,59.7
2017-09-06T05:15:48.384Z,60.0
2017-09-06T05:17:09.864Z,60.0
2017-09-06T05:18:11.256Z,59.9
2017-09-06T05:19:32.904Z,60.2
2017-09-06T05:20:34.300Z,59.7
2017-09-06T05:21:55.784Z,59.8
2017-09-06T05:22:57.176Z,59.7
2017-09-06T05:24:18.656Z,60.0
2017-09-06T05:25:20.048Z,60.1
2017-09-06T05:26:41.784Z,60.1
2017-09-06T05:27:43.176Z,59.6
2017-09-06T05:29:04.656Z,59.8
2017-09-06T05:30:06.048Z,59.6
2017-09-06T05:31:27.536Z,59.7
2017-09-06T05:32:28.928Z,60.0
2017-09-06T05:33:50.673Z,59.6
2017-09-06T05:34:52.064Z,59.6
2017-09-06T05:36:13.544Z,60.1
2017-09-06T05:37:14.936Z,59.8
2017-09-06T05:38:36.417Z,60.0
2017-09-06T05:39:37.814Z,60.2
2017-09-06T05:40:59.560Z,59.8
2017-09-06T05:42:00.945Z,59.8
2017-09-06T05:43:22.506Z,60.0
2017-09-06T05:44:23.897Z,60.1
2017-09-06T05:45:45.384Z,59.8
2017-09-06T05:46:46.777Z,60.0
2017-09-06T05:48:08.529Z,59.8
2017-09-06T05:49:09.921Z,60.2
2017-09-06T05:50:31.409Z,59.9
2017-09-06T05:51:32.801Z,60.5
2017-09-06T05:52:54.280Z,60.4
2017-09-06T05:53:55.673Z,60.7
2017-09-06T05:55:17.338Z,60.8
2017-09-06T05:56:18.730Z,60.8
2017-09-06T05:57:40.217Z,60.7
2017-09-06T05:58:41.609Z,60.5
2017-09-06T06:00:03.089Z,60.3
2017-09-06T06:01:04.481Z,60.8
2017-09-06T06:02:26.147Z,60.2
2017-09-06T06:03:27.537Z,60.5
2017-09-06T06:04:49.017Z,60.6
2017-09-06T06:05:50.445Z,60.3
2017-09-06T06:07:11.897Z,60.2
2017-09-06T06:08:13.289Z,60.4
2017-09-06T06:09:34.945Z,60.3
2017-09-06T06:10:36.338Z,60.4
2017-09-06T06:11:57.830Z,60.5
2017-09-06T06:12:59.217Z,60.8
2017-09-06T06:14:20.697Z,60.5
2017-09-06T06:15:22.089Z,60.1
2017-09-06T06:16:43.802Z,60.5
2017-09-06T06:17:45.203Z,60.5
2017-09-06T06:19:06.681Z,60.5
2017-09-06T06:20:08.073Z,60.5
2017-09-06T06:21:29.553Z,60.6
2017-09-06T06:22:30.945Z,61.0
2017-09-06T06:23:52.777Z,61.2
2017-09-06T06:24:54.175Z,61.6
2017-09-06T06:26:15.658Z,61.6
2017-09-06T06:27:17.049Z,61.4
2017-09-06T06:28:38.538Z,61.3
2017-09-06T06:29:39.930Z,61.8
2017-09-06T06:31:01.690Z,61.9
2017-09-06T06:32:03.081Z,62.1
2017-09-06T06:33:24.570Z,61.9
2017-09-06T06:34:25.962Z,61.9
2017-09-06T06:35:47.457Z,62.3
2017-09-06T06:36:48.851Z,62.3
2017-09-06T06:38:10.506Z,62.3
2017-09-06T06:39:11.901Z,62.8
2017-09-06T06:40:33.386Z,62.1
2017-09-06T06:41:34.778Z,62.0
2017-09-06T06:42:56.272Z,62.2
2017-09-06T06:43:57.666Z,61.8
2017-09-06T06:45:19.314Z,61.9
2017-09-06T06:46:20.714Z,62.1
2017-09-06T06:47:42.202Z,62.5
2017-09-06T06:48:43.594Z,62.6
2017-09-06T06:50:05.075Z,62.9
2017-09-06T06:51:06.474Z,63.7
2017-09-06T06:52:28.231Z,63.6
2017-09-06T06:53:29.618Z,63.9
2017-09-06T06:54:51.106Z,63.9
2017-09-06T06:55:52.498Z,63.5
2017-09-06T06:57:13.986Z,63.3
2017-09-06T06:58:15.378Z,63.6
2017-09-06T06:59:37.154Z,64.1
2017-09-06T07:00:38.554Z,63.8
2017-09-06T07:02:00.034Z,63.7
2017-09-06T07:03:01.427Z,64.1
2017-09-06T07:04:22.914Z,64.2
2017-09-06T07:05:24.306Z,64.1
2017-09-06T07:06:46.050Z,64.2
2017-09-06T07:07:47.442Z,64.1
2017-09-06T07:09:08.922Z,64.0
2017-09-06T07:10:10.315Z,63.8
2017-09-06T07:11:31.804Z,64.4
2017-09-06T07:12:33.194Z,64.7
2017-09-06T07:13:54.946Z,64.1
2017-09-06T07:14:56.338Z,64.0
2017-09-06T07:16:17.819Z,63.8
2017-09-06T07:17:19.219Z,64.1
2017-09-06T07:18:40.698Z,64.2
2017-09-06T07:19:42.091Z,63.9
2017-09-06T07:21:03.747Z,63.8
2017-09-06T07:22:05.139Z,63.9
2017-09-06T07:23:26.627Z,64.0
2017-09-06T07:24:28.018Z,63.9
2017-09-06T07:25:49.500Z,63.7
2017-09-06T07:26:50.891Z,64.5
2017-09-06T07:28:12.547Z,64.7
2017-09-06T07:29:13.939Z,64.5
2017-09-06T07:30:35.419Z,63.9
2017-09-06T07:31:36.811Z,63.7
2017-09-06T07:32:58.300Z,63.3
2017-09-06T07:33:59.699Z,63.1
2017-09-06T07:35:21.371Z,63.7
2017-09-06T07:36:22.763Z,63.6
2017-09-06T07:37:44.243Z,63.2
2017-09-06T07:38:45.635Z,63.2
2017-09-06T07:40:07.114Z,62.4
2017-09-06T07:41:08.515Z,62.5
2017-09-06T07:42:30.251Z,62.3
2017-09-06T07:43:31.651Z,62.3
2017-09-06T07:44:53.132Z,62.1
2017-09-06T07:45:54.531Z,61.7
2017-09-06T07:47:16.019Z,61.9
2017-09-06T07:48:17.412Z,61.8
2017-09-06T07:49:39.083Z,61.8
2017-09-06T07:50:40.475Z,61.7
2017-09-06T07:52:01.955Z,61.8
2017-09-06T07:53:03.347Z,61.9
2017-09-06T07:54:24.835Z,61.6
2017-09-06T07:55:26.236Z,62.0
2017-09-06T07:56:48.012Z,61.7
2017-09-06T07:57:49.404Z,61.5
2017-09-06T07:59:10.892Z,61.9
2017-09-06T08:00:12.283Z,62.0
2017-09-06T08:01:33.771Z,61.2
2017-09-06T08:02:35.164Z,61.8
2017-09-06T08:03:56.822Z,61.7
2017-09-06T08:04:58.211Z,61.5
2017-09-06T08:06:19.691Z,61.4
2017-09-06T08:07:21.084Z,61.2
2017-09-06T08:08:42.564Z,61.6
2017-09-06T08:09:43.956Z,61.6
2017-09-06T08:11:05.628Z,61.4
2017-09-06T08:12:07.021Z,61.9
